sensor_id;sensor_type;location;lat;lon;timestamp;P1;P2;P0
46381;PMS5003;66809;52.974;-2.514;2023-02-20T00:01:44;1.3333333333333333;1.1333333333333333;
46381;PMS5003;66809;52.974;-2.514;2023-02-20T00:03:39;1.35;1.15;
46381;PMS5003;66809;52.974;-2.514;2023-02-20T00:05:40;1.3166666666666667;1.1;
46381;PMS5003;66809;52.974;-2.514;2023-02-20T00:07:39;1.3166666666666667;1.1;
46381;PMS5003;66809;52.974;-2.514;2023-02-20T00:09:39;1.3166666666666667;1.1333333333333333;
46381;PMS5003;66809;52.974;-2.514;2023-02-20T00:11:40;1.2166666666666666;1.0666666666666667;
46381;PMS5003;66809;52.974;-2.514;2023-02-20T00:13:43;1.2;1.0666666666666667;
46381;PMS5003;66809;52.974;-2.514;2023-02-20T00:15:39;1.2166666666666666;1.0833333333333333;
46381;PMS5003;66809;52.974;-2.514;2023-02-20T00:17:40;1.2666666666666666;1.1333333333333333;
46381;PMS5003;66809;52.974;-2.514;2023-02-20T00:19:39;1.3166666666666667;1.1833333333333333;
46381;PMS5003;66809;52.974;-2.514;2023-02-20T00:21:43;1.2666666666666666;1.1333333333333333;
46381;PMS5003;66809;52.974;-2.514;2023-02-20T00:23:39;1.2666666666666666;1.1333333333333333;
46381;PMS5003;66809;52.974;-2.514;2023-02-20T00:25:39;1.2666666666666666;1.15;
46381;PMS5003;66809;52.974;-2.514;2023-02-20T00:27:40;1.3166666666666667;1.2166666666666666;
46381;PMS5003;66809;52.974;-2.514;2023-02-20T00:29:39;1.3;1.2;
46381;PMS5003;66809;52.974;-2.514;2023-02-20T00:31:39;1.2833333333333334;1.1833333333333333;
46381;PMS5003;66809;52.974;-2.514;2023-02-20T00:33:40;1.2666666666666666;1.15;
46381;PMS5003;66809;52.974;-2.514;2023-02-20T00:35:39;1.2666666666666666;1.15;
46381;PMS5003;66809;52.974;-2.514;2023-02-20T00:37:40;1.25;1.1333333333333333;
46381;PMS5003;66809;52.974;-2.514;2023-02-20T00:39:39;1.3;1.15;
46381;PMS5003;66809;52.974;-2.514;2023-02-20T00:41:39;1.35;1.1833333333333333;
46381;PMS5003;66809;52.974;-2.514;2023-02-20T00:43:39;1.3333333333333333;1.1666666666666667;
46381;PMS5003;66809;52.974;-2.514;2023-02-20T00:45:40;1.3333333333333333;1.1833333333333333;
46381;PMS5003;66809;52.974;-2.514;2023-02-20T00:47:39;1.35;1.2;
46381;PMS5003;66809;52.974;-2.514;2023-02-20T00:49:39;1.3333333333333333;1.2;
46381;PMS5003;66809;52.974;-2.514;2023-02-20T00:51:39;1.3666666666666667;1.2333333333333334;
46381;PMS5003;66809;52.974;-2.514;2023-02-20T00:53:40;1.3833333333333333;1.25;
46381;PMS5003;66809;52.974;-2.514;2023-02-20T00:55:39;1.45;1.3;
46381;PMS5003;66809;52.974;-2.514;2023-02-20T00:57:39;1.5166666666666666;1.3666666666666667;
46381;PMS5003;66809;52.974;-2.514;2023-02-20T00:59:40;1.5833333333333333;1.4166666666666667;
46381;PMS5003;66809;52.974;-2.514;2023-02-20T01:01:40;1.5333333333333334;1.3833333333333333;
46381;PMS5003;66809;52.974;-2.514;2023-02-20T01:03:39;1.5333333333333334;1.3833333333333333;
46381;PMS5003;66809;52.974;-2.514;2023-02-20T01:05:39;1.55;1.3833333333333333;
46381;PMS5003;66809;52.974;-2.514;2023-02-20T01:07:40;1.55;1.3833333333333333;
46381;PMS5003;66809;52.974;-2.514;2023-02-20T01:09:40;1.6;1.4333333333333333;
46381;PMS5003;66809;52.974;-2.514;2023-02-20T01:11:40;1.6333333333333333;1.4666666666666666;
46381;PMS5003;66809;52.974;-2.514;2023-02-20T01:13:40;1.6666666666666667;1.5;
46381;PMS5003;66809;52.974;-2.514;2023-02-20T01:15:39;1.6666666666666667;1.5;
46381;PMS5003;66809;52.974;-2.514;2023-02-20T01:17:39;1.6666666666666667;1.5;
46381;PMS5003;66809;52.974;-2.514;2023-02-20T01:19:40;1.65;1.4833333333333334;
46381;PMS5003;66809;52.974;-2.514;2023-02-20T01:21:39;1.6333333333333333;1.4666666666666666;
46381;PMS5003;66809;52.974;-2.514;2023-02-20T01:23:39;1.6666666666666667;1.4666666666666666;
46381;PMS5003;66809;52.974;-2.514;2023-02-20T01:25:40;1.7166666666666666;1.4833333333333334;
46381;PMS5003;66809;52.974;-2.514;2023-02-20T01:27:39;1.7;1.45;
46381;PMS5003;66809;52.974;-2.514;2023-02-20T01:29:39;1.75;1.5;
46381;PMS5003;66809;52.974;-2.514;2023-02-20T01:31:39;1.7833333333333334;1.5166666666666666;
46381;PMS5003;66809;52.974;-2.514;2023-02-20T01:33:39;1.8333333333333333;1.5666666666666667;
46381;PMS5003;66809;52.974;-2.514;2023-02-20T01:35:39;1.9;1.6166666666666667;
46381;PMS5003;66809;52.974;-2.514;2023-02-20T01:37:39;1.9333333333333333;1.65;
46381;PMS5003;66809;52.974;-2.514;2023-02-20T01:39:39;1.9;1.65;
46381;PMS5003;66809;52.974;-2.514;2023-02-20T01:41:40;1.8666666666666667;1.6333333333333333;
46381;PMS5003;66809;52.974;-2.514;2023-02-20T01:43:40;1.9;1.65;
46381;PMS5003;66809;52.974;-2.514;2023-02-20T01:45:40;1.8833333333333333;1.6333333333333333;
46381;PMS5003;66809;52.974;-2.514;2023-02-20T01:47:39;1.8666666666666667;1.6166666666666667;
46381;PMS5003;66809;52.974;-2.514;2023-02-20T01:49:40;1.8666666666666667;1.6166666666666667;
46381;PMS5003;66809;52.974;-2.514;2023-02-20T01:51:40;1.8333333333333333;1.5833333333333333;
46381;PMS5003;66809;52.974;-2.514;2023-02-20T01:53:39;1.8166666666666667;1.5666666666666667;
46381;PMS5003;66809;52.974;-2.514;2023-02-20T01:55:41;1.7333333333333334;1.5;
46381;PMS5003;66809;52.974;-2.514;2023-02-20T01:57:40;1.7333333333333334;1.5;
46381;PMS5003;66809;52.974;-2.514;2023-02-20T01:59:39;1.6666666666666667;1.45;
46381;PMS5003;66809;52.974;-2.514;2023-02-20T02:01:40;1.7;1.4833333333333334;
46381;PMS5003;66809;52.974;-2.514;2023-02-20T02:03:40;1.7333333333333334;1.5166666666666666;
46381;PMS5003;66809;52.974;-2.514;2023-02-20T02:05:41;1.7166666666666666;1.5333333333333334;
46381;PMS5003;66809;52.974;-2.514;2023-02-20T02:07:40;1.7333333333333334;1.5166666666666666;
46381;PMS5003;66809;52.974;-2.514;2023-02-20T02:09:40;1.6833333333333333;1.4666666666666666;
46381;PMS5003;66809;52.974;-2.514;2023-02-20T02:11:39;1.6833333333333333;1.4666666666666666;
46381;PMS5003;66809;52.974;-2.514;2023-02-20T02:13:39;1.6833333333333333;1.4666666666666666;
46381;PMS5003;66809;52.974;-2.514;2023-02-20T02:15:39;1.6666666666666667;1.45;
46381;PMS5003;66809;52.974;-2.514;2023-02-20T02:17:45;1.6666666666666667;1.45;
46381;PMS5003;66809;52.974;-2.514;2023-02-20T02:19:47;1.6333333333333333;1.4333333333333333;
46381;PMS5003;66809;52.974;-2.514;2023-02-20T02:21:46;1.6833333333333333;1.4833333333333334;
46381;PMS5003;66809;52.974;-2.514;2023-02-20T02:23:52;1.6833333333333333;1.4833333333333334;
46381;PMS5003;66809;52.974;-2.514;2023-02-20T02:25:41;1.6166666666666667;1.45;
46381;PMS5003;66809;52.974;-2.514;2023-02-20T02:27:46;1.6;1.4666666666666666;
46381;PMS5003;66809;52.974;-2.514;2023-02-20T02:29:44;1.5666666666666667;1.4333333333333333;
46381;PMS5003;66809;52.974;-2.514;2023-02-20T02:31:47;1.5333333333333334;1.4166666666666667;
46381;PMS5003;66809;52.974;-2.514;2023-02-20T02:33:46;1.4833333333333334;1.3833333333333333;
46381;PMS5003;66809;52.974;-2.514;2023-02-20T02:35:52;1.4166666666666667;1.3333333333333333;
46381;PMS5003;66809;52.974;-2.514;2023-02-20T02:37:40;1.4166666666666667;1.3333333333333333;
46381;PMS5003;66809;52.974;-2.514;2023-02-20T02:39:42;1.4166666666666667;1.3333333333333333;
46381;PMS5003;66809;52.974;-2.514;2023-02-20T02:41:41;1.4;1.3166666666666667;
46381;PMS5003;66809;52.974;-2.514;2023-02-20T02:43:41;1.3666666666666667;1.3;
46381;PMS5003;66809;52.974;-2.514;2023-02-20T02:45:42;1.3666666666666667;1.3;
46381;PMS5003;66809;52.974;-2.514;2023-02-20T02:47:40;1.3833333333333333;1.3166666666666667;
46381;PMS5003;66809;52.974;-2.514;2023-02-20T02:49:42;1.3833333333333333;1.3166666666666667;
46381;PMS5003;66809;52.974;-2.514;2023-02-20T02:51:39;1.4;1.3333333333333333;
46381;PMS5003;66809;52.974;-2.514;2023-02-20T02:53:40;1.4166666666666667;1.35;
46381;PMS5003;66809;52.974;-2.514;2023-02-20T02:55:39;1.4333333333333333;1.3666666666666667;
46381;PMS5003;66809;52.974;-2.514;2023-02-20T02:57:39;1.4333333333333333;1.3666666666666667;
46381;PMS5003;66809;52.974;-2.514;2023-02-20T02:59:39;1.45;1.3833333333333333;
46381;PMS5003;66809;52.974;-2.514;2023-02-20T03:01:41;1.4166666666666667;1.35;
46381;PMS5003;66809;52.974;-2.514;2023-02-20T03:03:40;1.3833333333333333;1.3166666666666667;
46381;PMS5003;66809;52.974;-2.514;2023-02-20T03:05:41;1.3666666666666667;1.3;
46381;PMS5003;66809;52.974;-2.514;2023-02-20T03:07:39;1.3666666666666667;1.3333333333333333;
46381;PMS5003;66809;52.974;-2.514;2023-02-20T03:09:40;1.3666666666666667;1.3333333333333333;
46381;PMS5003;66809;52.974;-2.514;2023-02-20T03:11:40;1.4;1.3666666666666667;
46381;PMS5003;66809;52.974;-2.514;2023-02-20T03:13:40;1.4;1.3666666666666667;
46381;PMS5003;66809;52.974;-2.514;2023-02-20T03:15:40;1.4166666666666667;1.3833333333333333;
46381;PMS5003;66809;52.974;-2.514;2023-02-20T03:17:41;1.3833333333333333;1.35;
46381;PMS5003;66809;52.974;-2.514;2023-02-20T03:19:41;1.3666666666666667;1.3333333333333333;
46381;PMS5003;66809;52.974;-2.514;2023-02-20T03:21:40;1.3333333333333333;1.3;
46381;PMS5003;66809;52.974;-2.514;2023-02-20T03:23:39;1.3166666666666667;1.3166666666666667;
46381;PMS5003;66809;52.974;-2.514;2023-02-20T03:25:41;1.3;1.3;
46381;PMS5003;66809;52.974;-2.514;2023-02-20T03:27:40;1.3;1.3;
46381;PMS5003;66809;52.974;-2.514;2023-02-20T03:29:40;1.3333333333333333;1.3166666666666667;
46381;PMS5003;66809;52.974;-2.514;2023-02-20T03:31:40;1.35;1.3333333333333333;
46381;PMS5003;66809;52.974;-2.514;2023-02-20T03:33:41;1.35;1.3333333333333333;
46381;PMS5003;66809;52.974;-2.514;2023-02-20T03:35:39;1.35;1.3333333333333333;
46381;PMS5003;66809;52.974;-2.514;2023-02-20T03:37:39;1.3333333333333333;1.3166666666666667;
46381;PMS5003;66809;52.974;-2.514;2023-02-20T03:39:41;1.3166666666666667;1.3;
46381;PMS5003;66809;52.974;-2.514;2023-02-20T03:41:39;1.3333333333333333;1.3166666666666667;
46381;PMS5003;66809;52.974;-2.514;2023-02-20T03:43:40;1.3333333333333333;1.3166666666666667;
46381;PMS5003;66809;52.974;-2.514;2023-02-20T03:45:40;1.3166666666666667;1.3;
46381;PMS5003;66809;52.974;-2.514;2023-02-20T03:47:40;1.3;1.2833333333333334;
46381;PMS5003;66809;52.974;-2.514;2023-02-20T03:49:40;1.3;1.2833333333333334;
46381;PMS5003;66809;52.974;-2.514;2023-02-20T03:51:40;1.3;1.2833333333333334;
46381;PMS5003;66809;52.974;-2.514;2023-02-20T03:53:40;1.2833333333333334;1.2666666666666666;
46381;PMS5003;66809;52.974;-2.514;2023-02-20T03:55:40;1.2666666666666666;1.25;
46381;PMS5003;66809;52.974;-2.514;2023-02-20T03:57:40;1.2333333333333334;1.2166666666666666;
46381;PMS5003;66809;52.974;-2.514;2023-02-20T03:59:41;1.2833333333333334;1.25;
46381;PMS5003;66809;52.974;-2.514;2023-02-20T04:01:40;1.2833333333333334;1.25;
46381;PMS5003;66809;52.974;-2.514;2023-02-20T04:03:40;1.25;1.2166666666666666;
46381;PMS5003;66809;52.974;-2.514;2023-02-20T04:05:40;1.2333333333333334;1.2;
46381;PMS5003;66809;52.974;-2.514;2023-02-20T04:07:40;1.1833333333333333;1.15;
46381;PMS5003;66809;52.974;-2.514;2023-02-20T04:09:40;1.2166666666666666;1.1833333333333333;
46381;PMS5003;66809;52.974;-2.514;2023-02-20T04:11:40;1.2166666666666666;1.1833333333333333;
46381;PMS5003;66809;52.974;-2.514;2023-02-20T04:13:39;1.1833333333333333;1.15;
46381;PMS5003;66809;52.974;-2.514;2023-02-20T04:15:40;1.2;1.1166666666666667;
46381;PMS5003;66809;52.974;-2.514;2023-02-20T04:17:41;1.2166666666666666;1.1333333333333333;
46381;PMS5003;66809;52.974;-2.514;2023-02-20T04:19:39;1.2;1.1166666666666667;
46381;PMS5003;66809;52.974;-2.514;2023-02-20T04:21:40;1.2;1.1166666666666667;
46381;PMS5003;66809;52.974;-2.514;2023-02-20T04:23:39;1.1833333333333333;1.0833333333333333;
46381;PMS5003;66809;52.974;-2.514;2023-02-20T04:25:41;1.2;1.1;
46381;PMS5003;66809;52.974;-2.514;2023-02-20T04:27:39;1.2166666666666666;1.1166666666666667;
46381;PMS5003;66809;52.974;-2.514;2023-02-20T04:29:39;1.2;1.1166666666666667;
46381;PMS5003;66809;52.974;-2.514;2023-02-20T04:31:39;1.1833333333333333;1.1;
46381;PMS5003;66809;52.974;-2.514;2023-02-20T04:33:39;1.2;1.1166666666666667;
46381;PMS5003;66809;52.974;-2.514;2023-02-20T04:35:39;1.2166666666666666;1.1333333333333333;
46381;PMS5003;66809;52.974;-2.514;2023-02-20T04:37:39;1.2166666666666666;1.1333333333333333;
46381;PMS5003;66809;52.974;-2.514;2023-02-20T04:39:40;1.2166666666666666;1.1333333333333333;
46381;PMS5003;66809;52.974;-2.514;2023-02-20T04:41:39;1.2166666666666666;1.1166666666666667;
46381;PMS5003;66809;52.974;-2.514;2023-02-20T04:43:39;1.1833333333333333;1.0833333333333333;
46381;PMS5003;66809;52.974;-2.514;2023-02-20T04:45:40;1.1666666666666667;1.0666666666666667;
46381;PMS5003;66809;52.974;-2.514;2023-02-20T04:47:39;1.1833333333333333;1.0833333333333333;
46381;PMS5003;66809;52.974;-2.514;2023-02-20T04:49:39;1.2166666666666666;1.1166666666666667;
46381;PMS5003;66809;52.974;-2.514;2023-02-20T04:51:39;1.2;1.1;
46381;PMS5003;66809;52.974;-2.514;2023-02-20T04:53:40;1.2;1.1;
46381;PMS5003;66809;52.974;-2.514;2023-02-20T04:55:39;1.2;1.1;
46381;PMS5003;66809;52.974;-2.514;2023-02-20T04:57:39;1.2166666666666666;1.1166666666666667;
46381;PMS5003;66809;52.974;-2.514;2023-02-20T04:59:40;1.1666666666666667;1.0833333333333333;
46381;PMS5003;66809;52.974;-2.514;2023-02-20T05:01:40;1.15;1.0666666666666667;
46381;PMS5003;66809;52.974;-2.514;2023-02-20T05:03:40;1.1833333333333333;1.1;
46381;PMS5003;66809;52.974;-2.514;2023-02-20T05:05:39;1.2166666666666666;1.1333333333333333;
46381;PMS5003;66809;52.974;-2.514;2023-02-20T05:07:39;1.2666666666666666;1.1833333333333333;
46381;PMS5003;66809;52.974;-2.514;2023-02-20T05:09:41;1.2333333333333334;1.15;
46381;PMS5003;66809;52.974;-2.514;2023-02-20T05:11:39;1.2;1.1;
46381;PMS5003;66809;52.974;-2.514;2023-02-20T05:13:40;1.2166666666666666;1.1166666666666667;
46381;PMS5003;66809;52.974;-2.514;2023-02-20T05:15:39;1.1333333333333333;1.0833333333333333;
46381;PMS5003;66809;52.974;-2.514;2023-02-20T05:17:39;1.0833333333333333;1.0333333333333334;
46381;PMS5003;66809;52.974;-2.514;2023-02-20T05:19:39;1.1;1.05;
46381;PMS5003;66809;52.974;-2.514;2023-02-20T05:21:40;1.1;1.05;
46381;PMS5003;66809;52.974;-2.514;2023-02-20T05:23:39;1.1166666666666667;1.0833333333333333;
46381;PMS5003;66809;52.974;-2.514;2023-02-20T05:25:39;1.1;1.0666666666666667;
46381;PMS5003;66809;52.974;-2.514;2023-02-20T05:27:39;1.0666666666666667;1.0333333333333334;
46381;PMS5003;66809;52.974;-2.514;2023-02-20T05:29:42;1.0666666666666667;1.0333333333333334;
46381;PMS5003;66809;52.974;-2.514;2023-02-20T05:31:39;1.05;1.0166666666666666;
46381;PMS5003;66809;52.974;-2.514;2023-02-20T05:33:39;1.0333333333333334;1.0;
46381;PMS5003;66809;52.974;-2.514;2023-02-20T05:35:40;1.05;0.9833333333333333;
46381;PMS5003;66809;52.974;-2.514;2023-02-20T05:37:39;1.0333333333333334;0.9666666666666667;
46381;PMS5003;66809;52.974;-2.514;2023-02-20T05:39:39;1.0;0.9333333333333333;
46381;PMS5003;66809;52.974;-2.514;2023-02-20T05:41:39;0.9833333333333333;0.9333333333333333;
46381;PMS5003;66809;52.974;-2.514;2023-02-20T05:43:39;1.05;0.9666666666666667;
46381;PMS5003;66809;52.974;-2.514;2023-02-20T05:45:40;1.0666666666666667;0.9833333333333333;
46381;PMS5003;66809;52.974;-2.514;2023-02-20T05:47:39;1.05;0.9666666666666667;
46381;PMS5003;66809;52.974;-2.514;2023-02-20T05:49:39;0.9833333333333333;0.9;
46381;PMS5003;66809;52.974;-2.514;2023-02-20T05:51:40;0.9666666666666667;0.8833333333333333;
46381;PMS5003;66809;52.974;-2.514;2023-02-20T05:53:39;0.9333333333333333;0.85;
46381;PMS5003;66809;52.974;-2.514;2023-02-20T05:55:39;0.9666666666666667;0.85;
46381;PMS5003;66809;52.974;-2.514;2023-02-20T05:57:40;0.9333333333333333;0.8166666666666667;
46381;PMS5003;66809;52.974;-2.514;2023-02-20T05:59:39;1.35;1.2333333333333334;
46381;PMS5003;66809;52.974;-2.514;2023-02-20T06:01:39;1.75;1.6333333333333333;
46381;PMS5003;66809;52.974;-2.514;2023-02-20T06:03:40;2.1166666666666667;1.9833333333333334;
46381;PMS5003;66809;52.974;-2.514;2023-02-20T06:05:39;2.8333333333333335;2.7;
46381;PMS5003;66809;52.974;-2.514;2023-02-20T06:07:39;3.15;3.0166666666666666;
46381;PMS5003;66809;52.974;-2.514;2023-02-20T06:09:40;3.1333333333333333;3.0;
46381;PMS5003;66809;52.974;-2.514;2023-02-20T06:11:39;3.1333333333333333;3.0166666666666666;
46381;PMS5003;66809;52.974;-2.514;2023-02-20T06:13:39;3.1333333333333333;3.0166666666666666;
46381;PMS5003;66809;52.974;-2.514;2023-02-20T06:15:39;3.15;3.033333333333333;
46381;PMS5003;66809;52.974;-2.514;2023-02-20T06:17:40;3.183333333333333;3.066666666666667;
46381;PMS5003;66809;52.974;-2.514;2023-02-20T06:19:39;3.183333333333333;3.066666666666667;
46381;PMS5003;66809;52.974;-2.514;2023-02-20T06:21:43;3.2;3.066666666666667;
46381;PMS5003;66809;52.974;-2.514;2023-02-20T06:23:42;3.183333333333333;3.05;
46381;PMS5003;66809;52.974;-2.514;2023-02-20T06:25:39;3.216666666666667;3.0833333333333335;
46381;PMS5003;66809;52.974;-2.514;2023-02-20T06:27:39;3.2;3.066666666666667;
46381;PMS5003;66809;52.974;-2.514;2023-02-20T06:29:40;3.183333333333333;3.05;
46381;PMS5003;66809;52.974;-2.514;2023-02-20T06:31:40;3.2;3.066666666666667;
46381;PMS5003;66809;52.974;-2.514;2023-02-20T06:33:39;3.2;3.066666666666667;
46381;PMS5003;66809;52.974;-2.514;2023-02-20T06:35:39;3.183333333333333;3.066666666666667;
46381;PMS5003;66809;52.974;-2.514;2023-02-20T06:37:40;3.2;3.0833333333333335;
46381;PMS5003;66809;52.974;-2.514;2023-02-20T06:39:40;3.2333333333333334;3.1166666666666667;
46381;PMS5003;66809;52.974;-2.514;2023-02-20T06:41:39;3.216666666666667;3.1;
46381;PMS5003;66809;52.974;-2.514;2023-02-20T06:43:40;3.183333333333333;3.1;
46381;PMS5003;66809;52.974;-2.514;2023-02-20T06:45:39;3.183333333333333;3.1;
46381;PMS5003;66809;52.974;-2.514;2023-02-20T06:47:39;3.183333333333333;3.1;
46381;PMS5003;66809;52.974;-2.514;2023-02-20T06:49:40;3.2;3.1166666666666667;
46381;PMS5003;66809;52.974;-2.514;2023-02-20T06:51:39;3.2;3.1166666666666667;
46381;PMS5003;66809;52.974;-2.514;2023-02-20T06:53:39;3.2;3.1166666666666667;
46381;PMS5003;66809;52.974;-2.514;2023-02-20T06:55:39;3.15;3.1;
46381;PMS5003;66809;52.974;-2.514;2023-02-20T06:57:39;3.15;3.1;
46381;PMS5003;66809;52.974;-2.514;2023-02-20T06:59:40;2.716666666666667;2.6666666666666665;
46381;PMS5003;66809;52.974;-2.514;2023-02-20T07:01:40;2.316666666666667;2.2666666666666666;
46381;PMS5003;66809;52.974;-2.514;2023-02-20T07:03:40;1.9333333333333333;1.9;
46381;PMS5003;66809;52.974;-2.514;2023-02-20T07:05:39;1.1666666666666667;1.1333333333333333;
46381;PMS5003;66809;52.974;-2.514;2023-02-20T07:07:39;0.8333333333333334;0.8;
46381;PMS5003;66809;52.974;-2.514;2023-02-20T07:09:40;0.85;0.8166666666666667;
46381;PMS5003;66809;52.974;-2.514;2023-02-20T07:11:40;0.85;0.8166666666666667;
46381;PMS5003;66809;52.974;-2.514;2023-02-20T07:13:40;0.85;0.8166666666666667;
46381;PMS5003;66809;52.974;-2.514;2023-02-20T07:15:39;0.85;0.8166666666666667;
46381;PMS5003;66809;52.974;-2.514;2023-02-20T07:17:39;0.8333333333333334;0.8;
46381;PMS5003;66809;52.974;-2.514;2023-02-20T07:19:40;0.8333333333333334;0.8;
46381;PMS5003;66809;52.974;-2.514;2023-02-20T07:21:39;0.8166666666666667;0.8;
46381;PMS5003;66809;52.974;-2.514;2023-02-20T07:23:39;0.85;0.8166666666666667;
46381;PMS5003;66809;52.974;-2.514;2023-02-20T07:25:40;0.8333333333333334;0.8;
46381;PMS5003;66809;52.974;-2.514;2023-02-20T07:27:39;0.8666666666666667;0.8333333333333334;
46381;PMS5003;66809;52.974;-2.514;2023-02-20T07:29:39;0.8333333333333334;0.8;
46381;PMS5003;66809;52.974;-2.514;2023-02-20T07:31:40;0.8333333333333334;0.8;
46381;PMS5003;66809;52.974;-2.514;2023-02-20T07:33:39;0.8666666666666667;0.8333333333333334;
46381;PMS5003;66809;52.974;-2.514;2023-02-20T07:35:39;0.8333333333333334;0.8166666666666667;
46381;PMS5003;66809;52.974;-2.514;2023-02-20T07:37:39;0.8666666666666667;0.8166666666666667;
46381;PMS5003;66809;52.974;-2.514;2023-02-20T07:39:39;0.85;0.8;
46381;PMS5003;66809;52.974;-2.514;2023-02-20T07:41:39;0.9;0.8333333333333334;
46381;PMS5003;66809;52.974;-2.514;2023-02-20T07:43:39;0.9;0.8333333333333334;
46381;PMS5003;66809;52.974;-2.514;2023-02-20T07:45:40;0.8833333333333333;0.8166666666666667;
46381;PMS5003;66809;52.974;-2.514;2023-02-20T07:47:39;0.8666666666666667;0.8;
46381;PMS5003;66809;52.974;-2.514;2023-02-20T07:49:39;0.85;0.7833333333333333;
46381;PMS5003;66809;52.974;-2.514;2023-02-20T07:51:39;0.8833333333333333;0.8;
46381;PMS5003;66809;52.974;-2.514;2023-02-20T07:53:40;0.9;0.8166666666666667;
46381;PMS5003;66809;52.974;-2.514;2023-02-20T07:55:40;0.9166666666666666;0.8166666666666667;
46381;PMS5003;66809;52.974;-2.514;2023-02-20T07:57:39;0.9333333333333333;0.8333333333333334;
46381;PMS5003;66809;52.974;-2.514;2023-02-20T07:59:39;0.95;0.85;
46381;PMS5003;66809;52.974;-2.514;2023-02-20T08:01:39;0.9333333333333333;0.8333333333333334;
46381;PMS5003;66809;52.974;-2.514;2023-02-20T08:03:39;0.9166666666666666;0.8166666666666667;
46381;PMS5003;66809;52.974;-2.514;2023-02-20T08:05:40;0.95;0.85;
46381;PMS5003;66809;52.974;-2.514;2023-02-20T08:07:42;0.95;0.85;
46381;PMS5003;66809;52.974;-2.514;2023-02-20T08:09:39;0.9333333333333333;0.8333333333333334;
46381;PMS5003;66809;52.974;-2.514;2023-02-20T08:11:40;0.9333333333333333;0.8333333333333334;
46381;PMS5003;66809;52.974;-2.514;2023-02-20T08:13:40;0.9333333333333333;0.8333333333333334;
46381;PMS5003;66809;52.974;-2.514;2023-02-20T08:15:39;0.9666666666666667;0.8666666666666667;
46381;PMS5003;66809;52.974;-2.514;2023-02-20T08:17:39;0.9666666666666667;0.8666666666666667;
46381;PMS5003;66809;52.974;-2.514;2023-02-20T08:19:39;0.9666666666666667;0.8666666666666667;
46381;PMS5003;66809;52.974;-2.514;2023-02-20T08:21:39;0.9333333333333333;0.8333333333333334;
46381;PMS5003;66809;52.974;-2.514;2023-02-20T08:23:40;1.2;1.1166666666666667;
46381;PMS5003;66809;52.974;-2.514;2023-02-20T08:25:39;2.6333333333333333;2.55;
46381;PMS5003;66809;52.974;-2.514;2023-02-20T08:27:40;3.5;3.4;
46381;PMS5003;66809;52.974;-2.514;2023-02-20T08:29:39;4.083333333333333;3.9166666666666665;
46381;PMS5003;66809;52.974;-2.514;2023-02-20T08:31:40;4.583333333333333;4.416666666666667;
46381;PMS5003;66809;52.974;-2.514;2023-02-20T08:33:40;5.0;4.833333333333333;
46381;PMS5003;66809;52.974;-2.514;2023-02-20T08:35:40;5.166666666666667;5.0;
46381;PMS5003;66809;52.974;-2.514;2023-02-20T08:37:39;5.15;5.016666666666667;
46381;PMS5003;66809;52.974;-2.514;2023-02-20T08:39:39;5.116666666666666;4.983333333333333;
46381;PMS5003;66809;52.974;-2.514;2023-02-20T08:41:41;5.066666666666666;4.95;
46381;PMS5003;66809;52.974;-2.514;2023-02-20T08:43:42;5.066666666666666;4.95;
46381;PMS5003;66809;52.974;-2.514;2023-02-20T08:45:39;5.083333333333333;4.966666666666667;
46381;PMS5003;66809;52.974;-2.514;2023-02-20T08:47:40;5.1;4.983333333333333;
46381;PMS5003;66809;52.974;-2.514;2023-02-20T08:49:39;5.15;5.033333333333333;
46381;PMS5003;66809;52.974;-2.514;2023-02-20T08:51:39;5.133333333333334;5.033333333333333;
46381;PMS5003;66809;52.974;-2.514;2023-02-20T08:53:40;5.116666666666666;5.016666666666667;
46381;PMS5003;66809;52.974;-2.514;2023-02-20T08:55:39;5.133333333333334;5.05;
46381;PMS5003;66809;52.974;-2.514;2023-02-20T08:57:41;5.133333333333334;5.05;
46381;PMS5003;66809;52.974;-2.514;2023-02-20T08:59:39;5.1;5.016666666666667;
46381;PMS5003;66809;52.974;-2.514;2023-02-20T09:01:40;5.1;5.016666666666667;
46381;PMS5003;66809;52.974;-2.514;2023-02-20T09:03:39;5.1;5.016666666666667;
46381;PMS5003;66809;52.974;-2.514;2023-02-20T09:05:40;5.116666666666666;5.033333333333333;
46381;PMS5003;66809;52.974;-2.514;2023-02-20T09:07:39;5.066666666666666;4.983333333333333;
46381;PMS5003;66809;52.974;-2.514;2023-02-20T09:09:40;5.1;5.0;
46381;PMS5003;66809;52.974;-2.514;2023-02-20T09:11:39;5.15;5.0;
46381;PMS5003;66809;52.974;-2.514;2023-02-20T09:13:41;5.116666666666666;4.966666666666667;
46381;PMS5003;66809;52.974;-2.514;2023-02-20T09:15:39;5.116666666666666;4.966666666666667;
46381;PMS5003;66809;52.974;-2.514;2023-02-20T09:17:40;5.133333333333334;4.983333333333333;
46381;PMS5003;66809;52.974;-2.514;2023-02-20T09:19:40;5.116666666666666;4.966666666666667;
46381;PMS5003;66809;52.974;-2.514;2023-02-20T09:21:39;5.133333333333334;4.966666666666667;
46381;PMS5003;66809;52.974;-2.514;2023-02-20T09:23:39;4.816666666666666;4.65;
46381;PMS5003;66809;52.974;-2.514;2023-02-20T09:25:39;3.35;3.183333333333333;
46381;PMS5003;66809;52.974;-2.514;2023-02-20T09:27:39;2.466666666666667;2.316666666666667;
46381;PMS5003;66809;52.974;-2.514;2023-02-20T09:29:39;1.9166666666666667;1.8333333333333333;
46381;PMS5003;66809;52.974;-2.514;2023-02-20T09:31:40;1.4166666666666667;1.3166666666666667;